This is the latest recevied weather packets stored in our database for station/object N2OCK. If no packets are shown the sender has not sent any weather packets the latest 10 day(s).
| Time | Temp. | Humidity | Pressure | Rain* | Wind** | Luminosity | Snow |
|---|---|---|---|---|---|---|---|
| 1777991217 | 19.44° C | 69% | 1011.9 hPa | 0 mm | - | 585 W/m² | - |
| 1777990914 | 19.44° C | 70% | 1011.9 hPa | 0 mm | - | 575 W/m² | - |
| 1777990612 | 19.44° C | 67% | 1012 hPa | 0 mm | - | 566 W/m² | - |
| 1777990005 | 19.44° C | 70% | 1012 hPa | 0 mm | - | 543 W/m² | - |
| 1777989702 | 19.44° C | 69% | 1011.7 hPa | 0 mm | - | 535 W/m² | - |
| 1777989398 | 20° C | 67% | 1011.8 hPa | 0 mm | - | 522 W/m² | - |
| 1777989094 | 18.89° C | 71% | 1011.7 hPa | 0 mm | - | 508 W/m² | - |
| 1777988790 | 18.33° C | 72% | 1012 hPa | 0 mm | - | 498 W/m² | - |
| 1777988488 | 18.89° C | 72% | 1012 hPa | 0 mm | - | 484 W/m² | - |
| 1777988185 | 18.33° C | 73% | 1011.9 hPa | 0 mm | - | 471 W/m² | - |
| 1777987880 | 18.33° C | 73% | 1011.8 hPa | 0 mm | - | 459 W/m² | - |
| 1777987577 | 18.89° C | 71% | 1011.9 hPa | 0 mm | - | 450 W/m² | - |
| 1777987275 | 18.33° C | 74% | 1011.8 hPa | 0 mm | - | 434 W/m² | - |
| 1777986971 | 18.33° C | 74% | 1012 hPa | 0 mm | - | 416 W/m² | - |
| 1777986669 | 17.78° C | 74% | 1011.9 hPa | 0 mm | - | 403 W/m² | - |
| 1777986367 | 17.78° C | 75% | 1011.9 hPa | 0 mm | - | 392 W/m² | - |
| 1777986065 | 17.78° C | 75% | 1011.6 hPa | 0 mm | - | 381 W/m² | - |
| 1777985761 | 17.22° C | 76% | 1011.8 hPa | 0 mm | - | 365 W/m² | - |
| 1777985459 | 17.22° C | 78% | 1011.7 hPa | 0 mm | - | 355 W/m² | - |
| 1777985155 | 16.67° C | 78% | 1011.5 hPa | 0 mm | - | 350 W/m² | - |
| 1777984851 | 16.11° C | 79% | 1011.6 hPa | 0 mm | - | 326 W/m² | - |
| 1777984548 | 15.56° C | 81% | 1011.5 hPa | 0 mm | - | 126 W/m² | - |
| 1777984244 | 15.56° C | 82% | 1011.6 hPa | 0 mm | - | 122 W/m² | - |
| 1777983941 | 15.56° C | 81% | 1011.6 hPa | 0 mm | - | 137 W/m² | - |
| 1777983638 | 16.11° C | 81% | 1011.8 hPa | 0 mm | - | 142 W/m² | - |
* Rain latest hour (hover to see other rain measurements)
** Current wind speed in m/s (hover to see current wind gust speed)